createdAt,value
2019-04-29T00:02:20.433Z,8.63
2019-04-29T00:04:49.148Z,9.10
2019-04-29T00:07:18.043Z,8.10
2019-04-29T00:12:52.960Z,8.70
2019-04-29T00:15:32.553Z,8.67
2019-04-29T00:18:02.967Z,9.67
2019-04-29T00:20:36.181Z,8.17
2019-04-29T00:23:04.935Z,8.80
2019-04-29T00:25:33.784Z,9.27
2019-04-29T00:28:02.488Z,8.53
2019-04-29T00:30:31.308Z,9.67
2019-04-29T00:33:00.028Z,9.37
2019-04-29T00:35:28.648Z,8.87
2019-04-29T00:38:08.968Z,9.30
2019-04-29T00:40:55.867Z,9.70
2019-04-29T00:43:26.159Z,9.87
2019-04-29T00:45:54.795Z,9.93
2019-04-29T00:48:23.411Z,8.80
2019-04-29T00:50:52.100Z,9.30
2019-04-29T00:53:20.751Z,9.67
2019-04-29T00:55:50.821Z,9.37
2019-04-29T00:58:19.473Z,9.20
2019-04-29T01:00:48.401Z,9.40
2019-04-29T01:03:18.259Z,9.30
2019-04-29T01:05:47.069Z,8.77
2019-04-29T01:08:15.684Z,8.93
2019-04-29T01:10:44.655Z,9.40
2019-04-29T01:13:13.427Z,8.80
2019-04-29T01:15:42.181Z,9.37
2019-04-29T01:18:10.822Z,9.07
2019-04-29T01:20:39.422Z,8.83
2019-04-29T01:23:08.139Z,9.27
2019-04-29T01:25:36.845Z,8.87
2019-04-29T01:28:19.284Z,9.33
2019-04-29T01:31:13.662Z,10.00
2019-04-29T01:33:42.538Z,8.70
2019-04-29T01:36:21.882Z,10.47
2019-04-29T01:38:52.167Z,10.27
2019-04-29T01:41:37.576Z,9.67
2019-04-29T01:44:07.910Z,9.90
2019-04-29T01:46:36.579Z,9.47
2019-04-29T01:49:05.277Z,10.03
2019-04-29T01:51:33.958Z,9.33
2019-04-29T01:54:02.640Z,10.83
2019-04-29T01:56:31.379Z,10.13
2019-04-29T01:59:00.111Z,10.90
2019-04-29T02:01:28.832Z,9.53
2019-04-29T02:03:57.594Z,9.30
2019-04-29T02:06:26.426Z,9.07
2019-04-29T02:08:56.212Z,9.53
2019-04-29T02:11:24.958Z,8.67
2019-04-29T02:13:53.636Z,9.67
2019-04-29T02:16:22.351Z,9.97
2019-04-29T02:18:51.054Z,10.10
2019-04-29T02:21:19.683Z,9.90
2019-04-29T02:23:52.310Z,9.77
2019-04-29T02:26:21.022Z,9.97
2019-04-29T02:28:49.659Z,10.47
2019-04-29T02:31:35.864Z,9.80
2019-04-29T02:34:04.607Z,10.70
2019-04-29T02:36:33.224Z,11.53
2019-04-29T02:39:31.560Z,11.43
2019-04-29T02:42:02.004Z,9.73
2019-04-29T02:44:30.707Z,9.53
2019-04-29T02:46:59.487Z,10.07
2019-04-29T02:49:28.260Z,8.83
2019-04-29T02:51:56.965Z,8.90
2019-04-29T02:54:27.352Z,10.30
2019-04-29T02:57:00.754Z,9.60
2019-04-29T02:59:47.412Z,10.40
2019-04-29T03:02:17.759Z,10.33
2019-04-29T03:04:52.077Z,9.80
2019-04-29T03:07:21.863Z,10.23
2019-04-29T03:09:50.600Z,10.63
2019-04-29T03:12:19.350Z,10.80
2019-04-29T03:14:48.019Z,10.07
2019-04-29T03:17:18.909Z,11.80
2019-04-29T03:20:05.202Z,12.00
2019-04-29T03:22:34.276Z,11.33
2019-04-29T03:25:03.030Z,10.27
2019-04-29T03:27:31.931Z,12.07
2019-04-29T03:30:00.540Z,12.80
2019-04-29T03:32:29.175Z,12.80
2019-04-29T03:34:57.999Z,11.87
2019-04-29T03:37:26.753Z,13.57
2019-04-29T03:39:55.488Z,13.50
2019-04-29T03:42:24.296Z,11.43
2019-04-29T03:44:53.008Z,13.40
2019-04-29T03:47:21.633Z,12.33
2019-04-29T03:49:50.331Z,12.63
2019-04-29T03:52:19.052Z,12.97
2019-04-29T03:54:47.614Z,13.87
2019-04-29T03:57:17.757Z,13.70
2019-04-29T03:59:46.473Z,13.27
2019-04-29T04:02:19.738Z,12.93
2019-04-29T04:04:52.829Z,14.23
2019-04-29T04:07:37.795Z,14.33
2019-04-29T04:10:08.370Z,16.83
2019-04-29T04:12:36.941Z,17.00
2019-04-29T04:15:06.714Z,15.17
2019-04-29T04:17:53.383Z,13.67
2019-04-29T04:20:22.357Z,13.60
2019-04-29T04:22:50.939Z,14.40
2019-04-29T04:25:19.646Z,13.07
2019-04-29T04:27:48.483Z,12.47
2019-04-29T04:30:17.966Z,12.30
2019-04-29T04:32:46.692Z,10.97
2019-04-29T04:35:15.694Z,12.13
2019-04-29T04:37:44.431Z,11.53
2019-04-29T04:40:15.099Z,11.30
2019-04-29T04:42:43.587Z,11.20
2019-04-29T04:45:13.787Z,11.13
2019-04-29T04:47:42.519Z,10.50
2019-04-29T04:50:11.900Z,10.27
2019-04-29T04:52:40.685Z,12.00
2019-04-29T04:55:10.275Z,11.93
2019-04-29T04:57:38.980Z,12.67
2019-04-29T05:00:13.643Z,12.10
2019-04-29T05:02:42.227Z,11.50
2019-04-29T05:05:11.232Z,10.80
2019-04-29T05:07:41.127Z,11.30
2019-04-29T05:10:09.869Z,11.53
2019-04-29T05:12:38.508Z,11.70
2019-04-29T05:15:07.469Z,12.23
2019-04-29T05:17:36.115Z,13.07
2019-04-29T05:20:06.221Z,12.37
2019-04-29T05:22:34.996Z,12.07
2019-04-29T05:25:05.795Z,12.77
2019-04-29T05:27:34.432Z,13.03
2019-04-29T05:30:03.419Z,12.37
2019-04-29T05:32:32.155Z,13.93
2019-04-29T05:35:20.767Z,13.27
2019-04-29T05:37:58.568Z,14.03
2019-04-29T05:40:43.731Z,13.93
2019-04-29T05:43:32.114Z,14.43
2019-04-29T05:46:17.431Z,14.50
2019-04-29T05:48:44.952Z,14.33
2019-04-29T05:51:30.605Z,13.80
2019-04-29T05:54:06.880Z,14.60
2019-04-29T05:56:35.506Z,13.77
2019-04-29T05:59:04.311Z,14.53
2019-04-29T06:01:33.024Z,12.27
2019-04-29T06:04:01.749Z,13.60
2019-04-29T06:06:30.457Z,12.80
2019-04-29T06:08:59.195Z,14.93
2019-04-29T06:11:27.845Z,14.20
2019-04-29T06:13:56.481Z,13.43
2019-04-29T06:16:25.250Z,13.03
2019-04-29T06:18:59.727Z,13.30
2019-04-29T06:21:24.195Z,14.23
2019-04-29T06:23:54.560Z,15.87
2019-04-29T06:26:23.263Z,14.43
2019-04-29T06:28:51.902Z,13.50
2019-04-29T06:31:20.640Z,15.50
2019-04-29T06:33:49.257Z,14.90
2019-04-29T06:36:18.071Z,17.57
2019-04-29T06:38:46.793Z,15.40
2019-04-29T06:41:15.539Z,15.00
2019-04-29T06:43:44.268Z,15.73
2019-04-29T06:46:12.985Z,14.77
2019-04-29T06:48:41.671Z,15.00
2019-04-29T06:51:10.405Z,16.03
2019-04-29T06:53:39.215Z,16.47
2019-04-29T06:56:09.267Z,16.47
2019-04-29T06:58:38.444Z,16.03
2019-04-29T07:01:07.400Z,15.67
2019-04-29T07:03:36.206Z,15.97
2019-04-29T07:06:04.903Z,17.43
2019-04-29T07:08:33.735Z,16.77
2019-04-29T07:11:03.024Z,17.63
2019-04-29T07:13:31.862Z,16.93
2019-04-29T07:16:00.565Z,17.10
2019-04-29T07:18:29.215Z,18.50
2019-04-29T07:20:57.841Z,17.70
2019-04-29T07:23:26.524Z,16.90
2019-04-29T07:25:55.312Z,16.73
2019-04-29T07:28:24.009Z,17.47
2019-04-29T07:31:01.521Z,15.87
2019-04-29T07:33:24.499Z,17.70
2019-04-29T07:36:12.675Z,16.87
2019-04-29T07:38:42.059Z,16.70
2019-04-29T07:41:14.233Z,14.93
2019-04-29T07:43:43.128Z,17.53
2019-04-29T07:46:30.282Z,16.93
2019-04-29T07:49:01.587Z,18.30
2019-04-29T07:51:29.201Z,15.67
2019-04-29T07:53:57.914Z,16.13
2019-04-29T07:56:26.578Z,14.43
2019-04-29T07:58:58.988Z,17.40
2019-04-29T08:01:26.637Z,15.60
2019-04-29T08:03:55.352Z,17.63
2019-04-29T08:06:23.995Z,16.50
2019-04-29T08:08:55.488Z,15.77
2019-04-29T08:11:23.847Z,15.87
2019-04-29T08:13:52.779Z,15.20
2019-04-29T08:16:21.459Z,15.53
2019-04-29T08:18:53.481Z,15.57
2019-04-29T08:21:20.389Z,15.30
2019-04-29T08:23:49.051Z,15.97
2019-04-29T08:26:17.705Z,14.97
2019-04-29T08:28:46.348Z,14.30
2019-04-29T08:31:16.540Z,14.27
2019-04-29T08:33:46.977Z,14.47
2019-04-29T08:36:16.875Z,14.37
2019-04-29T08:38:45.688Z,13.73
2019-04-29T08:41:15.502Z,14.73
2019-04-29T08:43:45.850Z,14.70
2019-04-29T08:46:19.212Z,14.87
2019-04-29T08:48:48.000Z,14.53
2019-04-29T08:51:19.416Z,15.93
2019-04-29T08:53:48.048Z,16.03
2019-04-29T08:56:16.824Z,17.47
2019-04-29T08:58:49.211Z,14.87
2019-04-29T09:01:15.970Z,16.07
2019-04-29T09:03:44.584Z,15.43
2019-04-29T09:06:13.199Z,15.10
2019-04-29T09:08:54.146Z,15.47
2019-04-29T09:11:12.850Z,15.30
2019-04-29T09:13:49.285Z,16.40
2019-04-29T09:16:17.980Z,15.83
2019-04-29T09:18:46.770Z,14.93
2019-04-29T09:21:15.563Z,15.70
2019-04-29T09:23:44.323Z,14.83
2019-04-29T09:26:24.440Z,14.13
2019-04-29T09:28:53.312Z,14.87
2019-04-29T09:31:21.938Z,15.07
2019-04-29T09:33:52.333Z,14.03
2019-04-29T09:36:21.197Z,14.80
2019-04-29T09:38:49.900Z,13.93
2019-04-29T09:41:23.232Z,12.77
2019-04-29T09:44:04.039Z,14.23
2019-04-29T09:46:34.582Z,14.40
2019-04-29T09:49:01.938Z,16.87
2019-04-29T09:51:30.613Z,13.00
2019-04-29T09:53:59.443Z,13.73
2019-04-29T09:56:28.155Z,13.43
2019-04-29T09:59:14.784Z,13.23
2019-04-29T10:01:45.143Z,13.97
2019-04-29T10:04:15.406Z,12.23
2019-04-29T10:06:45.627Z,12.23
2019-04-29T10:09:14.313Z,11.23
2019-04-29T10:11:43.022Z,12.37
2019-04-29T10:14:11.740Z,12.37
2019-04-29T10:16:51.580Z,12.37
2019-04-29T10:19:22.004Z,11.33
2019-04-29T10:21:50.848Z,9.90
2019-04-29T10:24:19.588Z,11.20
2019-04-29T10:26:48.375Z,10.57
2019-04-29T10:29:20.318Z,11.77
2019-04-29T10:31:49.565Z,10.30
2019-04-29T10:34:18.483Z,11.40
2019-04-29T10:36:47.275Z,12.63
2019-04-29T10:39:34.042Z,12.67
2019-04-29T10:42:04.365Z,12.47
2019-04-29T10:44:49.990Z,12.70
2019-04-29T10:47:29.070Z,12.27
2019-04-29T10:50:10.659Z,12.03
2019-04-29T10:52:39.718Z,12.90
2019-04-29T10:55:10.189Z,12.77
2019-04-29T10:57:39.288Z,12.37
2019-04-29T11:00:16.933Z,13.07
2019-04-29T11:02:48.838Z,13.07
2019-04-29T11:05:23.883Z,14.27
2019-04-29T11:07:54.325Z,13.77
2019-04-29T11:10:31.144Z,14.50
2019-04-29T11:12:59.903Z,13.47
2019-04-29T11:15:33.382Z,13.63
2019-04-29T11:18:03.710Z,14.70
2019-04-29T11:20:33.416Z,13.90
2019-04-29T11:23:23.694Z,14.83
2019-04-29T11:25:54.596Z,13.83
2019-04-29T11:28:23.337Z,13.77
2019-04-29T11:30:52.147Z,13.10
2019-04-29T11:33:23.319Z,12.67
2019-04-29T11:35:59.114Z,11.43
2019-04-29T11:38:28.619Z,10.60
2019-04-29T11:40:58.009Z,9.93
2019-04-29T11:43:26.998Z,8.93
2019-04-29T11:45:56.154Z,9.90
2019-04-29T11:48:24.875Z,10.30
2019-04-29T11:51:01.131Z,9.70
2019-04-29T11:53:29.926Z,10.33
2019-04-29T11:55:58.806Z,9.27
2019-04-29T11:58:41.441Z,9.23
2019-04-29T12:01:11.937Z,8.80
2019-04-29T12:03:56.335Z,8.43
2019-04-29T12:06:22.361Z,8.87
2019-04-29T12:08:53.156Z,8.33
2019-04-29T12:11:21.796Z,9.20
2019-04-29T12:14:07.455Z,9.27
2019-04-29T12:16:39.204Z,8.53
2019-04-29T12:19:09.477Z,7.63
2019-04-29T12:21:39.832Z,7.70
2019-04-29T12:24:09.052Z,7.60
2019-04-29T12:26:42.845Z,8.37
2019-04-29T12:29:08.199Z,8.17
2019-04-29T12:31:55.136Z,8.37
2019-04-29T12:34:28.230Z,8.23
2019-04-29T12:36:57.037Z,8.50
2019-04-29T12:39:44.975Z,8.30
2019-04-29T12:42:15.573Z,7.97
2019-04-29T12:44:51.630Z,8.83
2019-04-29T12:47:26.938Z,8.40
2019-04-29T12:49:52.409Z,8.77
2019-04-29T12:52:21.382Z,8.80
2019-04-29T12:54:49.944Z,8.50
2019-04-29T12:57:22.975Z,8.43
2019-04-29T12:59:48.954Z,7.73
2019-04-29T13:02:19.991Z,8.97
2019-04-29T13:04:51.497Z,8.53
2019-04-29T13:07:34.175Z,8.37
2019-04-29T13:10:13.497Z,8.60
2019-04-29T13:12:44.496Z,9.03
2019-04-29T13:15:23.000Z,9.30
2019-04-29T13:18:03.697Z,7.93
2019-04-29T13:20:29.423Z,8.17
2019-04-29T13:23:00.998Z,9.57
2019-04-29T13:25:28.513Z,8.07
2019-04-29T13:28:03.732Z,8.43
2019-04-29T13:30:27.608Z,9.07
2019-04-29T13:32:56.343Z,8.40
2019-04-29T13:35:25.112Z,8.93
2019-04-29T13:37:53.901Z,8.47
2019-04-29T13:40:22.803Z,8.50
2019-04-29T13:42:51.611Z,8.80
2019-04-29T13:45:37.026Z,9.53
2019-04-29T13:48:09.114Z,9.03
2019-04-29T13:50:40.332Z,9.27
2019-04-29T13:53:11.549Z,8.90
2019-04-29T13:55:49.487Z,8.97
2019-04-29T13:58:10.006Z,9.07
2019-04-29T14:00:49.120Z,9.10
2019-04-29T14:03:19.679Z,9.20
2019-04-29T14:05:48.434Z,9.07
2019-04-29T14:08:17.155Z,9.37
2019-04-29T14:10:46.835Z,9.27
2019-04-29T14:13:18.929Z,8.90
2019-04-29T14:15:46.572Z,9.20
2019-04-29T14:18:15.219Z,9.83
2019-04-29T14:20:47.255Z,9.40
2019-04-29T14:23:14.213Z,10.23
2019-04-29T14:25:42.846Z,9.27
2019-04-29T14:28:11.496Z,10.17
2019-04-29T14:30:43.593Z,10.07
2019-04-29T14:33:10.667Z,9.40
2019-04-29T14:35:48.388Z,9.27
2019-04-29T14:38:17.243Z,8.60
2019-04-29T14:40:45.963Z,9.20
2019-04-29T14:43:32.770Z,9.27
2019-04-29T14:46:16.310Z,9.43
2019-04-29T14:48:46.836Z,11.03
2019-04-29T14:51:15.474Z,8.90
2019-04-29T14:53:55.795Z,8.93
2019-04-29T14:56:15.916Z,8.87
2019-04-29T14:58:45.057Z,9.33
2019-04-29T15:01:33.686Z,8.40
2019-04-29T15:04:17.903Z,9.20
2019-04-29T15:06:40.196Z,8.10
2019-04-29T15:09:16.722Z,8.10
2019-04-29T15:11:45.593Z,8.60
2019-04-29T15:14:39.276Z,7.73
2019-04-29T15:17:15.371Z,8.77
2019-04-29T15:19:50.957Z,7.63
2019-04-29T15:22:20.207Z,8.23
2019-04-29T15:24:49.102Z,7.90
2019-04-29T15:27:17.770Z,8.10
2019-04-29T15:29:46.491Z,7.80
2019-04-29T15:32:17.928Z,8.00
2019-04-29T15:34:48.108Z,7.70
2019-04-29T15:37:16.053Z,8.47
2019-04-29T15:39:46.192Z,8.13
2019-04-29T15:42:15.080Z,8.37
2019-04-29T15:44:43.843Z,8.07
2019-04-29T15:47:12.516Z,8.40
2019-04-29T15:49:41.139Z,8.07
2019-04-29T15:52:09.877Z,7.80
2019-04-29T15:54:38.403Z,8.23
2019-04-29T15:57:09.155Z,8.77
2019-04-29T15:59:48.510Z,8.90
2019-04-29T16:02:08.789Z,9.03
2019-04-29T16:04:39.351Z,8.13
2019-04-29T16:07:21.686Z,8.37
2019-04-29T16:10:01.397Z,8.70
2019-04-29T16:12:45.271Z,7.80
2019-04-29T16:15:11.425Z,7.97
2019-04-29T16:17:40.062Z,6.97
2019-04-29T16:20:08.693Z,6.40
2019-04-29T16:22:39.300Z,6.80
2019-04-29T16:25:11.223Z,6.57
2019-04-29T16:27:41.011Z,6.40
2019-04-29T16:30:18.616Z,7.33
2019-04-29T16:32:43.776Z,6.80
2019-04-29T16:35:17.774Z,6.70
2019-04-29T16:37:43.012Z,6.53
2019-04-29T16:40:12.734Z,6.13
2019-04-29T16:43:01.656Z,5.63
2019-04-29T16:45:32.028Z,6.07
2019-04-29T16:48:00.579Z,6.00
2019-04-29T16:50:29.350Z,6.73
2019-04-29T16:52:58.084Z,6.93
2019-04-29T16:55:26.781Z,6.97
2019-04-29T16:57:59.788Z,7.07
2019-04-29T17:00:27.747Z,6.67
2019-04-29T17:02:56.436Z,6.13
2019-04-29T17:05:25.224Z,5.57
2019-04-29T17:07:54.013Z,5.63
2019-04-29T17:10:31.374Z,6.30
2019-04-29T17:13:00.045Z,6.80
2019-04-29T17:15:32.271Z,8.10
2019-04-29T17:18:01.052Z,7.60
2019-04-29T17:20:29.795Z,9.33
2019-04-29T17:22:58.618Z,9.57
2019-04-29T17:25:27.264Z,7.60
2019-04-29T17:28:24.108Z,7.07
2019-04-29T17:31:11.595Z,6.57
2019-04-29T17:33:49.707Z,7.00
2019-04-29T17:36:13.124Z,7.70
2019-04-29T17:38:41.761Z,7.20
2019-04-29T17:41:10.721Z,7.33
2019-04-29T17:43:50.179Z,7.73
2019-04-29T17:46:36.960Z,6.67
2019-04-29T17:49:16.020Z,8.90
2019-04-29T17:51:45.923Z,7.33
2019-04-29T17:54:16.638Z,8.93
2019-04-29T17:57:16.196Z,8.43
2019-04-29T17:59:35.763Z,7.90
2019-04-29T18:02:06.488Z,8.13
2019-04-29T18:04:39.838Z,8.73
2019-04-29T18:07:18.371Z,8.30
2019-04-29T18:09:55.291Z,8.93
2019-04-29T18:12:24.878Z,8.00
2019-04-29T18:14:55.091Z,7.70
2019-04-29T18:17:30.291Z,9.80
2019-04-29T18:20:15.892Z,7.17
2019-04-29T18:22:49.123Z,7.20
2019-04-29T18:25:30.694Z,7.70
2019-04-29T18:28:00.051Z,6.97
2019-04-29T18:30:36.026Z,6.57
2019-04-29T18:32:58.190Z,6.40
2019-04-29T18:35:26.867Z,8.03
2019-04-29T18:37:56.372Z,7.57
2019-04-29T18:40:25.825Z,7.37
2019-04-29T18:42:55.424Z,6.80
2019-04-29T18:45:25.516Z,7.10
2019-04-29T18:47:54.627Z,7.33
2019-04-29T18:50:23.287Z,6.30
2019-04-29T18:52:51.931Z,7.30
2019-04-29T18:55:20.713Z,7.30
2019-04-29T18:57:49.326Z,6.63
2019-04-29T19:00:19.984Z,6.40
2019-04-29T19:02:56.879Z,7.03
2019-04-29T19:05:20.915Z,7.70
2019-04-29T19:07:55.267Z,7.27
2019-04-29T19:10:19.858Z,7.53
2019-04-29T19:12:59.537Z,7.77
2019-04-29T19:15:19.223Z,7.43
2019-04-29T19:17:58.680Z,8.07
2019-04-29T19:20:18.753Z,8.33
2019-04-29T19:22:47.592Z,7.90
2019-04-29T19:25:16.249Z,9.67
2019-04-29T19:27:45.454Z,8.13
2019-04-29T19:30:20.769Z,9.57
2019-04-29T19:32:46.726Z,10.43
2019-04-29T19:35:16.959Z,9.93
2019-04-29T19:37:45.847Z,9.63
2019-04-29T19:40:15.084Z,7.97
2019-04-29T19:42:46.924Z,7.77
2019-04-29T19:45:16.754Z,8.17
2019-04-29T19:47:47.455Z,8.30
2019-04-29T19:50:18.239Z,8.43
2019-04-29T19:52:45.600Z,9.27
2019-04-29T19:55:14.480Z,8.70
2019-04-29T19:57:48.050Z,8.50
2019-04-29T20:00:14.668Z,8.50
2019-04-29T20:02:48.664Z,8.53
2019-04-29T20:05:23.991Z,9.27
2019-04-29T20:07:55.530Z,8.37
2019-04-29T20:10:24.050Z,9.00
2019-04-29T20:12:54.980Z,8.73
2019-04-29T20:15:25.830Z,8.13
2019-04-29T20:17:59.063Z,8.30
2019-04-29T20:20:34.296Z,8.70
2019-04-29T20:23:00.270Z,9.33
2019-04-29T20:25:34.133Z,9.13
2019-04-29T20:28:05.790Z,10.90
2019-04-29T20:30:30.434Z,13.43
2019-04-29T20:33:01.601Z,12.30
2019-04-29T20:35:29.824Z,10.13
2019-04-29T20:38:00.166Z,8.83
2019-04-29T20:40:35.092Z,11.03
2019-04-29T20:42:59.919Z,10.50
2019-04-29T20:45:29.179Z,9.83
2019-04-29T20:47:58.405Z,10.03
2019-04-29T20:50:27.515Z,10.07
2019-04-29T20:53:02.555Z,9.60
2019-04-29T20:55:32.033Z,10.00
2019-04-29T20:58:03.932Z,9.57
2019-04-29T21:00:35.197Z,10.17
2019-04-29T21:03:09.362Z,10.03
2019-04-29T21:05:47.096Z,10.47
2019-04-29T21:08:14.424Z,9.93
2019-04-29T21:10:37.854Z,9.23
2019-04-29T21:13:16.282Z,10.73
2019-04-29T21:15:52.473Z,10.77
2019-04-29T21:18:21.439Z,10.43
2019-04-29T21:20:51.637Z,10.40
2019-04-29T21:23:20.401Z,11.10
2019-04-29T21:25:49.165Z,10.67
2019-04-29T21:28:17.727Z,10.67
2019-04-29T21:30:46.554Z,10.17
2019-04-29T21:33:20.970Z,9.87
2019-04-29T21:35:54.449Z,10.33
2019-04-29T21:38:40.660Z,10.07
2019-04-29T21:41:15.477Z,10.43
2019-04-29T21:43:47.008Z,10.10
2019-04-29T21:46:18.075Z,10.27
2019-04-29T21:48:46.804Z,11.80
2019-04-29T21:51:17.253Z,10.07
2019-04-29T21:53:45.976Z,10.53
2019-04-29T21:56:15.987Z,11.20
2019-04-29T21:58:44.887Z,10.97
2019-04-29T22:01:15.247Z,10.33
2019-04-29T22:03:44.238Z,10.70
2019-04-29T22:06:13.039Z,10.20
2019-04-29T22:08:41.853Z,11.10
2019-04-29T22:11:10.554Z,13.70
2019-04-29T22:13:39.347Z,11.13
2019-04-29T22:16:11.489Z,11.57
2019-04-29T22:18:38.838Z,10.87
2019-04-29T22:21:10.162Z,11.70
2019-04-29T22:23:38.219Z,10.83
2019-04-29T22:26:06.842Z,10.93
2019-04-29T22:28:35.655Z,11.40
2019-04-29T22:31:05.389Z,12.23
2019-04-29T22:33:38.473Z,12.33
2019-04-29T22:36:05.449Z,11.40
2019-04-29T22:38:35.880Z,12.03
2019-04-29T22:41:06.451Z,11.03
2019-04-29T22:43:51.669Z,12.20
2019-04-29T22:46:20.427Z,12.27
2019-04-29T22:48:49.105Z,11.30
2019-04-29T22:51:18.994Z,11.50
2019-04-29T22:53:48.326Z,11.90
2019-04-29T22:56:17.140Z,12.57
2019-04-29T22:58:47.472Z,12.73
2019-04-29T23:01:17.818Z,14.00
2019-04-29T23:03:47.107Z,13.43
2019-04-29T23:06:15.963Z,13.67
2019-04-29T23:08:44.997Z,15.03
2019-04-29T23:11:13.758Z,14.67
2019-04-29T23:13:42.427Z,14.77
2019-04-29T23:16:11.168Z,14.90
2019-04-29T23:18:44.076Z,16.40
2019-04-29T23:21:28.626Z,15.80
2019-04-29T23:24:17.307Z,15.97
2019-04-29T23:26:44.941Z,17.97
2019-04-29T23:29:13.322Z,18.83
2019-04-29T23:31:42.518Z,21.00
2019-04-29T23:34:11.212Z,19.37
2019-04-29T23:36:39.830Z,20.57
2019-04-29T23:39:08.459Z,21.73
2019-04-29T23:41:37.119Z,22.10
2019-04-29T23:44:08.819Z,21.60
2019-04-29T23:46:36.175Z,20.97
2019-04-29T23:49:06.767Z,20.23
2019-04-29T23:51:37.704Z,21.97
2019-04-29T23:54:07.851Z,21.97
2019-04-29T23:56:38.497Z,22.90
2019-04-29T23:59:16.882Z,20.70
